• Join FlightAware (Why Join?)
  • Login
  • US Flag 
06:20PM EDT


 

Airport Tracker/Info


-or-


 

Live Flight TrackerFlight Track Log ✈ EGF4039 ✈ 05-Apr-2013 ✈ KALO - KORD

Flight Track Log - Related Links

Times and Time Zones

All times are in EDT time to prevent confusion due to time zone crossing. See the EGF4039 flight status page for this flight to view local times or setup timezone preferences in your user account.

Time Position Orientation Groundspeed Altitude Reporting Facility
EDT Latitude Longitude Course Direction KTS MPH feet Rate Location/Type
05:00PM 42.5397 -92.3669 97° East 153 176 2,700  Level Chicago Center
05:01PM 42.5328 -92.2967 98° East 198 228 5,500 2,340 Climbing Chicago Center
05:03PM 42.5261 -92.1981 95° East 244 281 7,600 2,340 Climbing Chicago Center
05:04PM 42.4991 -91.8564 97° East  Level FlightAware Approximate
05:04PM 42.5169 -92.0867 96° East 278 320 10,400  Level Chicago Center
05:05PM 42.4867 -91.7202 97° East  Level FlightAware Approximate
05:05PM 42.5078 -91.9606 96° East 310 357 12,300  Level Chicago Center
05:06PM 42.4799 -91.5974 97° East  Level FlightAware Approximate
05:06PM 42.4947 -91.7997 96° East 354 407 15,300  Level Chicago Center
05:07PM 42.4839 -91.6619 96° East 374 430 17,200 1,620 Climbing Chicago Center
05:08PM 42.4717 -91.5172 96° East 388 447 18,700 1,500 Climbing Chicago Center
05:09PM 42.4592 -91.3653 96° East 408 470 20,400 1,740 Climbing Chicago Center
05:10PM 42.4428 -91.1786 97° East 422 486 22,400 1,200 Climbing Chicago Center
05:11PM 42.4281 -91.0117 97° East 447 514 23,000 240 Climbing Chicago Center
05:12PM 42.4122 -90.8342 97° East 476 548 23,000  Level Chicago Center
05:13PM 42.4047 -90.6583 93° East 473 544 23,000  Level Chicago Center
05:14PM 42.4267 -90.4547 82° East 463 533 23,000  Level Chicago Center
05:15PM 42.4444 -90.2817 82° East 467 537 23,000  Level Chicago Center
05:16PM 42.4408 -90.1031 92° East 479 551 23,000  Level Chicago Center
05:17PM 42.4328 -89.9008 93° East 483 556 23,000  Level Chicago Center
05:18PM 42.4264 -89.7197 93° East 483 556 23,000 -720 Level Chicago Center
05:19PM 42.4183 -89.5397 93° East 480 552 21,600 -2,100 Descending Chicago Center
05:20PM 42.4128 -89.3681 92° East 463 533 18,700 -2,760 Descending Chicago Center
05:21PM 42.4050 -89.2067 94° East 436 502 16,000 -2,520 Descending Chicago Center
05:22PM 42.3983 -89.0247 93° East 418 481 13,600 -2,340 Descending Chicago Center
05:23PM 42.3917 -88.8758 93° East 400 460 11,200 -1,560 Descending Chicago Center
05:24PM 42.3856 -88.7350 93° East 381 438 10,400 -660 Descending Chicago Center
05:25PM 42.3792 -88.6094 94° East 341 392 9,900 -720 Descending Chicago Center
05:26PM 42.3739 -88.5003 94° East 301 346 9,000 -1,020 Descending Chicago Center
05:27PM 42.3017 -88.4333 146° Southeast 296 341 7,900 -960 Descending Chicago Center
05:28PM 42.2283 -88.4089 166° South 277 319 7,000 -480 Descending Chicago Center
05:29PM 42.1633 -88.3875 166° South 250 288 7,000  Level Chicago Center
05:30PM 42.0992 -88.3689 168° South 239 275 7,000 -540 Level Chicago Center
05:32PM 42.0464 -88.3489 164° South 208 239 5,900 -1,020 Descending Chicago Center
05:33PM 41.9814 -88.3289 167° South 200 230 5,000 -600 Descending Chicago Center
05:34PM 41.9578 -88.2808 123° Southeast 198 228 4,700 -540 Descending Chicago Center
05:35PM 41.9678 -88.2106 79° East 195 224 4,000 -720 Descending Chicago Center